Mount Auburn, Indiana
Current Conditions -  °F | °C
As of 4:06 PM on Wednesday 17 Dec 2014 (Local Time) from KMIE Reporting Station
Overcast Overcast  
Wind Chill: -10°   Ceiling: 900
Heat Index: -4°   Visibility: 8mi
Dew Point: -6°   Wind: 13mph
Humidity: 85%   Direction: 270°W
Pressure: 30.2"   Gusts: NA
Location:  39.8349°N, 85.156°W
Report Text: KMIE 172106Z 27011KT 8SM OVC009 M04/M06 A3020 RMK AO2 T10391061
Loading
Personal Weather Stations






























Interactive Weather Map New forecast layout! Learn more

10-Day Weather Forecast

Advertisements
Track Severe Weather on mobile